createdAt,value
2018-07-07T00:01:15.628Z,2.00
2018-07-07T00:03:44.217Z,2.43
2018-07-07T00:06:12.927Z,1.97
2018-07-07T00:08:41.694Z,2.47
2018-07-07T00:11:10.478Z,2.37
2018-07-07T00:13:39.342Z,2.73
2018-07-07T00:16:08.286Z,2.37
2018-07-07T00:18:37.283Z,1.60
2018-07-07T00:21:06.772Z,2.03
2018-07-07T00:23:35.578Z,2.13
2018-07-07T00:26:04.507Z,2.37
2018-07-07T00:28:33.288Z,2.73
2018-07-07T00:31:02.068Z,2.77
2018-07-07T00:33:30.825Z,2.07
2018-07-07T00:35:59.610Z,2.73
2018-07-07T00:38:28.584Z,2.50
2018-07-07T00:40:57.498Z,2.40
2018-07-07T00:43:26.235Z,2.83
2018-07-07T00:45:55.010Z,2.07
2018-07-07T00:48:23.796Z,2.83
2018-07-07T00:50:52.670Z,2.50
2018-07-07T00:53:21.463Z,2.30
2018-07-07T00:55:50.285Z,2.60
2018-07-07T00:58:19.049Z,2.83
2018-07-07T01:00:51.582Z,2.53
2018-07-07T01:03:21.111Z,2.70
2018-07-07T01:05:49.996Z,2.50
2018-07-07T01:08:19.108Z,3.40
2018-07-07T01:10:52.220Z,2.33
2018-07-07T01:13:20.990Z,3.37
2018-07-07T01:15:49.883Z,2.70
2018-07-07T01:18:18.698Z,2.70
2018-07-07T01:20:47.450Z,2.23
2018-07-07T01:23:16.227Z,2.60
2018-07-07T01:25:45.019Z,3.97
2018-07-07T01:28:13.830Z,3.00
2018-07-07T01:30:43.524Z,2.40
2018-07-07T01:33:12.304Z,3.53
2018-07-07T01:35:41.102Z,2.93
2018-07-07T01:38:09.878Z,3.20
2018-07-07T01:40:38.654Z,3.70
2018-07-07T01:43:07.396Z,2.97
2018-07-07T01:45:36.226Z,3.83
2018-07-07T01:48:04.827Z,3.77
2018-07-07T01:50:33.517Z,3.70
2018-07-07T01:53:02.183Z,2.70
2018-07-07T01:55:31.019Z,4.20
2018-07-07T01:57:59.778Z,3.53
2018-07-07T02:00:28.626Z,2.73
2018-07-07T02:02:57.468Z,3.20
2018-07-07T02:05:26.258Z,3.27
2018-07-07T02:07:55.197Z,3.63
2018-07-07T02:10:23.950Z,3.57
2018-07-07T02:12:52.831Z,3.90
2018-07-07T02:15:21.615Z,3.30
2018-07-07T02:17:50.413Z,4.83
2018-07-07T02:20:19.192Z,3.47
2018-07-07T02:22:48.003Z,4.00
2018-07-07T02:25:16.805Z,3.60
2018-07-07T02:27:45.673Z,3.70
2018-07-07T02:30:14.517Z,3.97
2018-07-07T02:32:43.314Z,3.47
2018-07-07T02:35:12.079Z,4.70
2018-07-07T02:37:40.882Z,3.33
2018-07-07T02:40:09.630Z,3.47
2018-07-07T02:42:38.492Z,4.07
2018-07-07T02:45:07.281Z,3.43
2018-07-07T02:47:36.130Z,5.50
2018-07-07T02:50:04.879Z,3.90
2018-07-07T02:52:33.673Z,3.90
2018-07-07T02:55:02.459Z,4.00
2018-07-07T02:57:31.374Z,4.40
2018-07-07T03:00:00.181Z,4.57
2018-07-07T03:02:29.029Z,3.67
2018-07-07T03:04:57.959Z,3.60
2018-07-07T03:07:26.770Z,4.03
2018-07-07T03:09:55.513Z,4.70
2018-07-07T03:12:24.331Z,4.30
2018-07-07T03:14:53.124Z,3.80
2018-07-07T03:17:22.010Z,4.00
2018-07-07T03:19:51.179Z,3.80
2018-07-07T03:22:19.951Z,3.80
2018-07-07T03:24:49.410Z,3.77
2018-07-07T03:27:18.215Z,4.00
2018-07-07T03:29:47.091Z,4.07
2018-07-07T03:32:15.875Z,4.40
2018-07-07T03:34:44.642Z,4.30
2018-07-07T03:37:13.446Z,4.20
2018-07-07T03:39:42.232Z,4.37
2018-07-07T03:42:11.041Z,4.30
2018-07-07T03:44:39.846Z,4.20
2018-07-07T03:47:08.647Z,4.60
2018-07-07T03:49:37.391Z,3.97
2018-07-07T03:52:06.274Z,4.10
2018-07-07T03:54:35.063Z,4.37
2018-07-07T03:57:04.895Z,5.03
2018-07-07T03:59:33.751Z,4.57
2018-07-07T04:02:02.529Z,4.83
2018-07-07T04:04:31.290Z,4.60
2018-07-07T04:07:00.171Z,3.83
2018-07-07T04:09:28.956Z,3.73
2018-07-07T04:11:57.763Z,3.80
2018-07-07T04:14:26.531Z,3.97
2018-07-07T04:16:55.336Z,4.07
2018-07-07T04:19:24.111Z,4.10
2018-07-07T04:21:53.257Z,3.57
2018-07-07T04:24:22.031Z,4.27
2018-07-07T04:26:50.891Z,4.63
2018-07-07T04:29:19.672Z,4.90
2018-07-07T04:31:48.422Z,4.00
2018-07-07T04:34:17.259Z,4.20
2018-07-07T04:36:46.024Z,4.20
2018-07-07T04:39:14.942Z,3.80
2018-07-07T04:41:43.707Z,4.97
2018-07-07T04:44:12.506Z,4.90
2018-07-07T04:46:41.294Z,4.40
2018-07-07T04:49:10.094Z,4.87
2018-07-07T04:51:38.858Z,4.77
2018-07-07T04:54:07.481Z,4.63
2018-07-07T04:56:36.205Z,4.53
2018-07-07T04:59:05.033Z,5.17
2018-07-07T05:01:33.841Z,6.23
2018-07-07T05:04:02.722Z,4.17
2018-07-07T05:06:31.502Z,3.80
2018-07-07T05:09:00.421Z,3.80
2018-07-07T05:11:29.180Z,5.13
2018-07-07T05:13:57.796Z,4.13
2018-07-07T05:16:26.476Z,3.50
2018-07-07T05:18:55.287Z,3.90
2018-07-07T05:21:24.149Z,3.90
2018-07-07T05:23:52.938Z,4.27
2018-07-07T05:26:21.739Z,3.90
2018-07-07T05:28:50.923Z,5.00
2018-07-07T05:31:19.764Z,4.40
2018-07-07T05:33:48.616Z,4.00
2018-07-07T05:36:17.363Z,4.03
2018-07-07T05:38:46.136Z,5.20
2018-07-07T05:41:14.970Z,4.37
2018-07-07T05:43:43.871Z,4.60
2018-07-07T05:46:12.619Z,3.67
2018-07-07T05:48:41.274Z,4.10
2018-07-07T05:51:09.935Z,3.60
2018-07-07T05:53:38.719Z,3.17
2018-07-07T05:56:07.794Z,3.83
2018-07-07T05:58:36.580Z,4.40
2018-07-07T06:01:05.447Z,3.40
2018-07-07T06:03:34.435Z,3.57
2018-07-07T06:06:03.205Z,3.80
2018-07-07T06:08:31.982Z,4.40
2018-07-07T06:11:00.733Z,4.13
2018-07-07T06:13:29.520Z,4.13
2018-07-07T06:15:58.108Z,4.43
2018-07-07T06:18:26.867Z,3.67
2018-07-07T06:20:55.611Z,3.80
2018-07-07T06:23:24.499Z,3.90
2018-07-07T06:25:53.291Z,3.07
2018-07-07T06:28:22.102Z,4.60
2018-07-07T06:30:50.966Z,3.80
2018-07-07T06:33:19.730Z,3.73
2018-07-07T06:35:48.547Z,3.53
2018-07-07T06:38:17.880Z,3.87
2018-07-07T06:40:46.742Z,3.20
2018-07-07T06:43:15.514Z,3.03
2018-07-07T06:45:44.311Z,3.73
2018-07-07T06:48:13.153Z,3.50
2018-07-07T06:50:41.911Z,3.83
2018-07-07T06:53:10.676Z,3.37
2018-07-07T06:55:39.496Z,3.27
2018-07-07T06:58:08.256Z,3.87
2018-07-07T07:00:37.050Z,3.10
2018-07-07T07:03:05.947Z,3.13
2018-07-07T07:05:34.847Z,3.60
2018-07-07T07:08:03.744Z,3.30
2018-07-07T07:10:32.630Z,3.47
2018-07-07T07:13:01.386Z,2.90
2018-07-07T07:15:30.236Z,3.07
2018-07-07T07:17:59.190Z,3.37
2018-07-07T07:20:27.999Z,3.30
2018-07-07T07:23:03.590Z,3.37
2018-07-07T07:25:32.972Z,3.13
2018-07-07T07:28:01.824Z,3.10
2018-07-07T07:30:30.712Z,2.53
2018-07-07T07:32:59.619Z,3.43
2018-07-07T07:35:28.530Z,3.13
2018-07-07T07:37:57.410Z,3.57
2018-07-07T07:40:26.200Z,4.20
2018-07-07T07:42:54.962Z,3.70
2018-07-07T07:45:23.758Z,3.10
2018-07-07T07:47:52.524Z,3.00
2018-07-07T07:50:21.315Z,3.33
2018-07-07T07:52:50.151Z,3.50
2018-07-07T07:55:18.979Z,3.37
2018-07-07T07:57:47.751Z,3.70
2018-07-07T08:00:16.630Z,3.63
2018-07-07T08:02:45.414Z,3.20
2018-07-07T08:05:14.207Z,3.20
2018-07-07T08:07:43.191Z,3.03
2018-07-07T08:10:12.050Z,2.90
2018-07-07T08:12:40.818Z,2.90
2018-07-07T08:15:09.642Z,3.00
2018-07-07T08:17:38.399Z,2.70
2018-07-07T08:20:07.214Z,2.57
2018-07-07T08:22:36.037Z,2.67
2018-07-07T08:25:05.097Z,2.50
2018-07-07T08:27:33.888Z,2.70
2018-07-07T08:30:02.692Z,3.20
2018-07-07T08:32:31.614Z,3.03
2018-07-07T08:35:00.396Z,3.23
2018-07-07T08:37:29.146Z,2.40
2018-07-07T08:39:57.919Z,2.93
2018-07-07T08:42:26.957Z,3.00
2018-07-07T08:44:55.822Z,3.00
2018-07-07T08:47:24.607Z,2.70
2018-07-07T08:49:53.423Z,2.50
2018-07-07T08:52:22.238Z,2.90
2018-07-07T08:54:50.956Z,2.43
2018-07-07T08:57:19.762Z,2.73
2018-07-07T08:59:48.587Z,2.50
2018-07-07T09:02:17.630Z,2.70
2018-07-07T09:04:46.339Z,2.50
2018-07-07T09:07:15.214Z,2.90
2018-07-07T09:09:44.036Z,2.53
2018-07-07T09:12:12.834Z,2.33
2018-07-07T09:14:41.692Z,3.63
2018-07-07T09:17:10.587Z,2.40
2018-07-07T09:19:39.325Z,3.00
2018-07-07T09:22:08.217Z,3.60
2018-07-07T09:24:37.013Z,2.93
2018-07-07T09:27:05.755Z,2.90
2018-07-07T09:29:34.523Z,3.47
2018-07-07T09:32:03.455Z,2.50
2018-07-07T09:34:32.223Z,3.17
2018-07-07T09:37:01.019Z,2.93
2018-07-07T09:39:29.820Z,2.83
2018-07-07T09:41:58.691Z,2.53
2018-07-07T09:44:27.464Z,2.50
2018-07-07T09:46:56.343Z,2.40
2018-07-07T09:49:25.138Z,2.40
2018-07-07T09:51:53.942Z,1.93
2018-07-07T09:54:22.737Z,2.73
2018-07-07T09:56:51.545Z,2.40
2018-07-07T09:59:20.331Z,2.80
2018-07-07T10:01:49.176Z,2.33
2018-07-07T10:04:17.929Z,2.50
2018-07-07T10:06:46.931Z,2.00
2018-07-07T10:09:15.736Z,2.63
2018-07-07T10:11:44.513Z,2.13
2018-07-07T10:14:13.320Z,2.30
2018-07-07T10:16:42.092Z,2.07
2018-07-07T10:19:10.894Z,1.40
2018-07-07T10:21:39.634Z,1.70
2018-07-07T10:24:08.422Z,1.80
2018-07-07T10:26:37.243Z,2.13
2018-07-07T10:29:06.019Z,1.80
2018-07-07T10:31:34.961Z,2.00
2018-07-07T10:34:03.681Z,1.90
2018-07-07T10:36:32.482Z,1.93
2018-07-07T10:39:01.267Z,2.37
2018-07-07T10:41:30.054Z,2.00
2018-07-07T10:43:58.822Z,1.70
2018-07-07T10:46:27.593Z,1.93
2018-07-07T10:48:56.457Z,2.10
2018-07-07T10:51:25.175Z,1.80
2018-07-07T10:53:54.002Z,1.60
2018-07-07T10:56:22.778Z,2.10
2018-07-07T10:58:52.117Z,1.57
2018-07-07T11:01:20.942Z,2.07
2018-07-07T11:03:49.731Z,2.30
2018-07-07T11:06:18.532Z,1.60
2018-07-07T11:08:47.327Z,1.60
2018-07-07T11:11:16.135Z,1.60
2018-07-07T11:13:44.935Z,1.40
2018-07-07T11:16:13.710Z,1.80
2018-07-07T11:18:42.914Z,1.53
2018-07-07T11:21:11.695Z,1.97
2018-07-07T11:23:40.493Z,1.53
2018-07-07T11:26:09.245Z,1.80
2018-07-07T11:28:38.069Z,1.57
2018-07-07T11:31:06.847Z,1.37
2018-07-07T11:33:35.760Z,1.37
2018-07-07T11:36:04.753Z,1.93
2018-07-07T11:38:33.709Z,1.47
2018-07-07T11:41:02.519Z,1.57
2018-07-07T11:43:31.303Z,1.50
2018-07-07T11:46:00.089Z,1.47
2018-07-07T11:48:28.927Z,1.57
2018-07-07T11:50:57.771Z,1.40
2018-07-07T11:53:26.595Z,1.70
2018-07-07T11:55:55.471Z,1.40
2018-07-07T11:58:24.262Z,1.37
2018-07-07T12:00:53.051Z,1.40
2018-07-07T12:03:21.829Z,1.63
2018-07-07T12:05:50.591Z,1.47
2018-07-07T12:08:19.275Z,1.10
2018-07-07T12:10:47.869Z,1.60
2018-07-07T12:13:16.635Z,1.20
2018-07-07T12:15:45.446Z,1.30
2018-07-07T12:18:14.366Z,1.73
2018-07-07T12:20:43.164Z,1.90
2018-07-07T12:23:11.912Z,1.40
2018-07-07T12:25:40.708Z,1.77
2018-07-07T12:28:09.447Z,1.57
2018-07-07T12:30:38.233Z,1.10
2018-07-07T12:33:06.975Z,1.23
2018-07-07T12:35:35.894Z,1.10
2018-07-07T12:38:04.787Z,1.67
2018-07-07T12:40:34.139Z,1.33
2018-07-07T12:43:02.875Z,1.40
2018-07-07T12:45:31.712Z,1.50
2018-07-07T12:48:00.569Z,1.53
2018-07-07T12:50:30.019Z,1.53
2018-07-07T12:52:58.793Z,1.47
2018-07-07T12:55:27.637Z,1.57
2018-07-07T12:57:56.418Z,1.40
2018-07-07T13:00:25.226Z,2.30
2018-07-07T13:02:53.987Z,1.40
2018-07-07T13:05:23.000Z,1.63
2018-07-07T13:07:51.767Z,1.30
2018-07-07T13:10:20.564Z,1.57
2018-07-07T13:12:49.418Z,1.30
2018-07-07T13:15:18.213Z,1.43
2018-07-07T13:17:47.064Z,1.27
2018-07-07T13:20:15.867Z,1.00
2018-07-07T13:22:44.622Z,1.47
2018-07-07T13:25:13.405Z,1.97
2018-07-07T13:27:42.186Z,1.50
2018-07-07T13:30:10.914Z,1.60
2018-07-07T13:32:39.586Z,1.70
2018-07-07T13:35:08.383Z,1.20
2018-07-07T13:37:37.155Z,1.47
2018-07-07T13:40:05.985Z,1.47
2018-07-07T13:42:34.773Z,1.53
2018-07-07T13:45:03.635Z,1.57
2018-07-07T13:47:32.443Z,1.60
2018-07-07T13:50:01.200Z,1.53
2018-07-07T13:52:30.100Z,1.43
2018-07-07T13:54:58.912Z,1.50
2018-07-07T13:57:27.828Z,1.23
2018-07-07T13:59:56.576Z,1.40
2018-07-07T14:02:25.522Z,1.33
2018-07-07T14:04:54.253Z,1.63
2018-07-07T14:07:23.060Z,1.80
2018-07-07T14:09:51.828Z,1.63
2018-07-07T14:12:20.602Z,1.47
2018-07-07T14:14:49.371Z,1.40
2018-07-07T14:17:18.252Z,1.60
2018-07-07T14:19:46.900Z,1.50
2018-07-07T14:22:15.754Z,1.70
2018-07-07T14:24:44.525Z,1.60
2018-07-07T14:27:13.375Z,1.53
2018-07-07T14:29:42.195Z,1.70
2018-07-07T14:32:11.071Z,1.60
2018-07-07T14:34:39.950Z,1.57
2018-07-07T14:37:08.754Z,1.33
2018-07-07T14:40:01.121Z,1.90
2018-07-07T14:42:50.377Z,1.97
2018-07-07T14:45:22.121Z,1.80
2018-07-07T14:47:51.955Z,1.70
2018-07-07T14:50:21.030Z,1.87
2018-07-07T14:52:49.978Z,1.80
2018-07-07T14:55:20.066Z,1.60
2018-07-07T14:57:48.952Z,1.80
2018-07-07T15:00:23.720Z,2.00
2018-07-07T15:02:53.527Z,2.00
2018-07-07T15:05:22.327Z,1.87
2018-07-07T15:07:51.130Z,2.03
2018-07-07T15:10:19.909Z,2.00
2018-07-07T15:12:48.954Z,1.97
2018-07-07T15:15:17.774Z,1.77
2018-07-07T15:17:47.158Z,1.50
2018-07-07T15:20:15.930Z,1.70
2018-07-07T15:22:44.923Z,1.67
2018-07-07T15:25:13.542Z,1.63
2018-07-07T15:27:42.348Z,1.80
2018-07-07T15:30:11.281Z,1.83
2018-07-07T15:32:40.079Z,1.70
2018-07-07T15:35:08.854Z,1.70
2018-07-07T15:37:37.644Z,1.60
2018-07-07T15:40:06.790Z,1.70
2018-07-07T15:42:35.536Z,1.80
2018-07-07T15:45:04.430Z,1.80
2018-07-07T15:47:33.269Z,1.70
2018-07-07T15:50:02.101Z,1.33
2018-07-07T15:52:30.919Z,2.17
2018-07-07T15:54:59.675Z,1.80
2018-07-07T15:57:28.532Z,1.60
2018-07-07T15:59:57.345Z,1.67
2018-07-07T16:02:26.162Z,2.13
2018-07-07T16:04:54.918Z,1.90
2018-07-07T16:07:23.634Z,1.80
2018-07-07T16:09:52.603Z,1.90
2018-07-07T16:12:21.330Z,1.97
2018-07-07T16:14:50.323Z,2.10
2018-07-07T16:17:19.117Z,1.83
2018-07-07T16:19:47.956Z,2.00
2018-07-07T16:22:16.735Z,1.73
2018-07-07T16:24:45.563Z,1.83
2018-07-07T16:27:14.327Z,4.40
2018-07-07T16:29:43.236Z,2.30
2018-07-07T16:32:12.001Z,2.10
2018-07-07T16:34:40.836Z,2.33
2018-07-07T16:37:09.593Z,2.23
2018-07-07T16:39:38.427Z,1.77
2018-07-07T16:42:07.207Z,1.80
2018-07-07T16:44:36.528Z,1.77
2018-07-07T16:47:05.460Z,2.17
2018-07-07T16:49:34.478Z,1.70
2018-07-07T16:52:03.444Z,2.00
2018-07-07T16:54:32.287Z,1.77
2018-07-07T16:57:01.142Z,2.00
2018-07-07T16:59:30.464Z,1.90
2018-07-07T17:01:59.339Z,2.00
2018-07-07T17:04:28.288Z,1.90
2018-07-07T17:06:57.090Z,2.80
2018-07-07T17:09:25.701Z,2.30
2018-07-07T17:11:54.494Z,2.13
2018-07-07T17:14:23.383Z,1.77
2018-07-07T17:16:52.383Z,1.80
2018-07-07T17:19:21.314Z,2.03
2018-07-07T17:21:50.283Z,1.57
2018-07-07T17:24:19.062Z,2.00
2018-07-07T17:26:47.875Z,2.00
2018-07-07T17:29:16.735Z,1.53
2018-07-07T17:31:45.878Z,2.23
2018-07-07T17:34:14.755Z,2.60
2018-07-07T17:36:43.641Z,2.00
2018-07-07T17:39:12.448Z,2.40
2018-07-07T17:41:41.225Z,2.03
2018-07-07T17:44:10.044Z,1.73
2018-07-07T17:46:39.595Z,2.70
2018-07-07T17:49:08.460Z,2.50
2018-07-07T17:51:37.204Z,2.87
2018-07-07T17:54:06.107Z,3.07
2018-07-07T17:56:36.009Z,2.53
2018-07-07T17:59:04.914Z,2.43
2018-07-07T18:01:34.358Z,2.17
2018-07-07T18:04:03.168Z,2.20
2018-07-07T18:06:31.912Z,2.83
2018-07-07T18:09:00.676Z,3.33
2018-07-07T18:11:29.482Z,2.10
2018-07-07T18:13:58.224Z,2.90
2018-07-07T18:16:27.053Z,2.20
2018-07-07T18:18:55.932Z,4.00
2018-07-07T18:21:24.683Z,3.60
2018-07-07T18:23:53.463Z,3.00
2018-07-07T18:26:22.276Z,2.20
2018-07-07T18:28:51.010Z,2.50
2018-07-07T18:31:19.818Z,2.20
2018-07-07T18:33:48.635Z,1.90
2018-07-07T18:36:17.443Z,2.43
2018-07-07T18:38:46.196Z,2.50
2018-07-07T18:41:15.310Z,2.00
2018-07-07T18:43:44.082Z,2.10
2018-07-07T18:46:12.896Z,2.20
2018-07-07T18:48:41.711Z,2.10
2018-07-07T18:51:10.525Z,2.63
2018-07-07T18:53:39.342Z,2.10
2018-07-07T18:56:12.669Z,2.10
2018-07-07T18:58:41.562Z,2.43
2018-07-07T19:01:10.514Z,2.60
2018-07-07T19:03:39.635Z,2.53
2018-07-07T19:06:08.687Z,2.13
2018-07-07T19:08:37.478Z,2.70
2018-07-07T19:11:06.305Z,1.83
2018-07-07T19:13:35.095Z,2.40
2018-07-07T19:16:03.966Z,2.77
2018-07-07T19:18:32.758Z,3.50
2018-07-07T19:21:06.946Z,2.60
2018-07-07T19:23:41.241Z,2.93
2018-07-07T19:26:15.437Z,2.87
2018-07-07T19:28:44.262Z,2.47
2018-07-07T19:31:13.075Z,2.63
2018-07-07T19:33:47.380Z,2.47
2018-07-07T19:36:21.456Z,2.30
2018-07-07T19:38:50.283Z,2.20
2018-07-07T19:41:19.058Z,2.47
2018-07-07T19:43:47.902Z,2.73
2018-07-07T19:46:16.798Z,3.23
2018-07-07T19:48:45.588Z,2.67
2018-07-07T19:51:14.350Z,2.17
2018-07-07T19:53:43.221Z,2.33
2018-07-07T19:56:12.059Z,2.37
2018-07-07T19:58:40.835Z,1.87
2018-07-07T20:01:09.728Z,2.30
2018-07-07T20:03:38.621Z,2.60
2018-07-07T20:06:07.422Z,2.50
2018-07-07T20:08:36.211Z,2.90
2018-07-07T20:11:04.994Z,2.77
2018-07-07T20:13:33.770Z,3.13
2018-07-07T20:16:12.714Z,2.50
2018-07-07T20:19:02.185Z,2.53
2018-07-07T20:21:48.131Z,2.20
2018-07-07T20:24:19.139Z,2.80
2018-07-07T20:26:53.354Z,2.33
2018-07-07T20:29:22.110Z,1.93
2018-07-07T20:31:52.464Z,2.40
2018-07-07T20:34:25.558Z,2.30
2018-07-07T20:36:54.739Z,2.47
2018-07-07T20:39:23.919Z,2.40
2018-07-07T20:41:53.238Z,2.60
2018-07-07T20:44:22.005Z,2.53
2018-07-07T20:46:51.059Z,3.03
2018-07-07T20:49:19.872Z,2.30
2018-07-07T20:51:48.647Z,2.80
2018-07-07T20:54:17.382Z,2.53
2018-07-07T20:56:46.327Z,2.37
2018-07-07T20:59:15.075Z,2.03
2018-07-07T21:01:44.003Z,3.17
2018-07-07T21:04:12.796Z,2.77
2018-07-07T21:06:41.596Z,2.80
2018-07-07T21:09:10.407Z,2.63
2018-07-07T21:11:39.216Z,2.60
2018-07-07T21:14:08.099Z,3.07
2018-07-07T21:16:36.988Z,2.60
2018-07-07T21:19:05.779Z,3.07
2018-07-07T21:21:34.575Z,2.83
2018-07-07T21:24:03.335Z,3.07
2018-07-07T21:26:32.138Z,3.07
2018-07-07T21:29:00.938Z,2.47
2018-07-07T21:31:30.087Z,2.80
2018-07-07T21:33:58.885Z,3.40
2018-07-07T21:36:27.596Z,2.80
2018-07-07T21:38:56.400Z,2.77
2018-07-07T21:41:25.170Z,2.80
2018-07-07T21:43:53.970Z,2.57
2018-07-07T21:46:22.730Z,2.63
2018-07-07T21:48:51.333Z,2.10
2018-07-07T21:51:20.011Z,3.03
2018-07-07T21:53:48.920Z,2.40
2018-07-07T21:56:17.601Z,2.83
2018-07-07T21:58:46.215Z,1.97
2018-07-07T22:01:24.230Z,2.40
2018-07-07T22:03:58.534Z,2.80
2018-07-07T22:06:32.806Z,2.70
2018-07-07T22:09:01.596Z,3.17
2018-07-07T22:11:30.391Z,2.97
2018-07-07T22:13:59.219Z,2.60
2018-07-07T22:16:27.975Z,2.77
2018-07-07T22:18:56.759Z,2.70
2018-07-07T22:21:37.015Z,2.50
2018-07-07T22:24:05.798Z,2.20
2018-07-07T22:26:34.554Z,2.73
2018-07-07T22:29:03.362Z,2.80
2018-07-07T22:31:32.208Z,2.73
2018-07-07T22:34:00.994Z,3.20
2018-07-07T22:36:33.793Z,2.70
2018-07-07T22:39:02.570Z,2.73
2018-07-07T22:41:42.942Z,3.00
2018-07-07T22:44:11.716Z,2.20
2018-07-07T22:46:40.461Z,2.47
2018-07-07T22:49:09.270Z,2.70
2018-07-07T22:51:38.061Z,2.87
2018-07-07T22:54:06.827Z,2.87
2018-07-07T22:56:35.614Z,3.10
2018-07-07T22:59:04.471Z,2.83
2018-07-07T23:01:33.263Z,3.13
2018-07-07T23:04:02.059Z,3.10
2018-07-07T23:06:30.744Z,3.03
2018-07-07T23:08:59.431Z,2.40
2018-07-07T23:11:28.255Z,2.40
2018-07-07T23:13:57.055Z,2.90
2018-07-07T23:16:25.861Z,2.53
2018-07-07T23:18:54.651Z,2.67
2018-07-07T23:21:23.440Z,2.70
2018-07-07T23:23:52.279Z,2.93
2018-07-07T23:26:21.075Z,3.10
2018-07-07T23:28:49.882Z,2.80
2018-07-07T23:31:18.856Z,2.30
2018-07-07T23:33:47.771Z,2.90
2018-07-07T23:36:16.734Z,3.17
2018-07-07T23:38:45.537Z,2.93
2018-07-07T23:41:14.328Z,3.17
2018-07-07T23:43:43.157Z,2.90
2018-07-07T23:46:11.931Z,2.50
2018-07-07T23:48:41.039Z,2.70
2018-07-07T23:51:10.401Z,2.60
2018-07-07T23:53:39.629Z,2.50
2018-07-07T23:56:08.592Z,2.67
2018-07-07T23:58:37.530Z,3.57
